createdAt,value
2023-08-29T00:02:32.878Z,-80
2023-08-29T00:05:05.287Z,-80
2023-08-29T00:07:39.814Z,-79
2023-08-29T00:10:15.314Z,-79
2023-08-29T00:12:47.547Z,-79
2023-08-29T00:15:22.440Z,-80
2023-08-29T00:17:54.747Z,-80
2023-08-29T00:20:27.437Z,-80
2023-08-29T00:22:59.815Z,-80
2023-08-29T00:25:32.115Z,-79
2023-08-29T00:28:13.491Z,-79
2023-08-29T00:30:51.277Z,-79
2023-08-29T00:33:23.579Z,-79
2023-08-29T00:35:56.162Z,-78
2023-08-29T00:38:28.620Z,-78
2023-08-29T00:41:01.028Z,-78
2023-08-29T00:43:33.445Z,-78
2023-08-29T00:46:10.043Z,-78
2023-08-29T00:48:42.633Z,-79
2023-08-29T00:51:15.540Z,-79
2023-08-29T00:53:48.356Z,-77
2023-08-29T00:56:20.772Z,-78
2023-08-29T00:58:54.243Z,-79
2023-08-29T01:01:29.484Z,-78
2023-08-29T01:04:02.083Z,-78
2023-08-29T01:06:35.585Z,-78
2023-08-29T01:09:08.982Z,-78
2023-08-29T01:11:51.142Z,-78
2023-08-29T01:14:33.630Z,-77
2023-08-29T01:17:17.619Z,-77
2023-08-29T01:19:56.494Z,-77
2023-08-29T01:22:40.846Z,-78
2023-08-29T01:25:23.037Z,-78
2023-08-29T01:27:59.217Z,-74
2023-08-29T01:30:33.024Z,-75
2023-08-29T01:33:06.079Z,-75
2023-08-29T01:35:38.621Z,-74
2023-08-29T01:38:12.838Z,-74
2023-08-29T01:40:45.198Z,-75
2023-08-29T01:43:20.177Z,-75
2023-08-29T01:45:52.705Z,-77
2023-08-29T01:48:26.301Z,-75
2023-08-29T01:50:59.146Z,-75
2023-08-29T01:53:32.005Z,-75
2023-08-29T01:56:05.475Z,-75
2023-08-29T01:58:42.416Z,-75
2023-08-29T02:01:22.525Z,-75
2023-08-29T02:03:56.627Z,-75
2023-08-29T02:06:29.081Z,-75
2023-08-29T02:09:01.648Z,-75
2023-08-29T02:11:34.023Z,-76
2023-08-29T02:14:14.415Z,-75
2023-08-29T02:16:46.845Z,-76
2023-08-29T02:19:19.495Z,-76
2023-08-29T02:21:51.779Z,-75
2023-08-29T02:24:24.116Z,-76
2023-08-29T02:26:56.456Z,-76
2023-08-29T02:29:31.868Z,-76
2023-08-29T02:32:04.264Z,-76
2023-08-29T02:34:36.668Z,-77
2023-08-29T02:37:09.509Z,-76
2023-08-29T02:39:43.129Z,-76
2023-08-29T02:42:15.464Z,-76
2023-08-29T02:44:50.449Z,-76
2023-08-29T02:47:22.757Z,-76
2023-08-29T02:49:55.203Z,-76
2023-08-29T02:52:27.813Z,-76
2023-08-29T02:55:00.482Z,-76
2023-08-29T02:57:32.825Z,-76
2023-08-29T03:00:09.186Z,-77
2023-08-29T03:02:41.670Z,-76
2023-08-29T03:05:14.311Z,-76
2023-08-29T03:07:46.702Z,-75
2023-08-29T03:10:19.262Z,-76
2023-08-29T03:12:51.570Z,-76
2023-08-29T03:15:26.732Z,-76
2023-08-29T03:18:00.904Z,-76
2023-08-29T03:20:33.548Z,-76
2023-08-29T03:23:05.881Z,-76
2023-08-29T03:25:38.300Z,-76
2023-08-29T03:28:11.450Z,-75
2023-08-29T03:30:47.161Z,-76
2023-08-29T03:33:19.509Z,-76
2023-08-29T03:36:01.796Z,-75
2023-08-29T03:38:34.331Z,-76
2023-08-29T03:41:07.731Z,-76
2023-08-29T03:43:41.151Z,-76
2023-08-29T03:46:16.020Z,-76
2023-08-29T03:48:48.758Z,-76
2023-08-29T03:51:21.104Z,-75
2023-08-29T03:53:53.788Z,-76
2023-08-29T03:56:26.290Z,-76
2023-08-29T03:58:59.077Z,-76
2023-08-29T04:01:34.007Z,-76
2023-08-29T04:04:06.618Z,-76
2023-08-29T04:06:39.011Z,-76
2023-08-29T04:09:11.933Z,-76
2023-08-29T04:11:44.141Z,-76
2023-08-29T04:14:16.639Z,-77
2023-08-29T04:16:51.553Z,-75
2023-08-29T04:19:23.944Z,-76
2023-08-29T04:21:56.202Z,-76
2023-08-29T04:24:29.891Z,-78
2023-08-29T04:27:02.747Z,-78
2023-08-29T04:29:35.551Z,-76
2023-08-29T04:32:10.856Z,-76
2023-08-29T04:34:43.102Z,-76
2023-08-29T04:37:16.497Z,-76
2023-08-29T04:39:49.211Z,-76
2023-08-29T04:42:21.477Z,-75
2023-08-29T04:44:55.106Z,-76
2023-08-29T04:47:30.088Z,-76
2023-08-29T04:50:02.639Z,-76
2023-08-29T04:52:35.221Z,-76
2023-08-29T04:55:08.925Z,-76
2023-08-29T04:57:41.400Z,-76
2023-08-29T05:00:14.866Z,-76
2023-08-29T05:02:49.915Z,-76
2023-08-29T05:05:22.636Z,-76
2023-08-29T05:07:54.915Z,-76
2023-08-29T05:10:28.190Z,-76
2023-08-29T05:13:00.579Z,-76
2023-08-29T05:15:32.925Z,-76
2023-08-29T05:18:11.440Z,-76
2023-08-29T05:20:43.949Z,-76
2023-08-29T05:23:16.312Z,-76
2023-08-29T05:25:48.605Z,-77
2023-08-29T05:28:21.055Z,-76
2023-08-29T05:30:53.838Z,-75
2023-08-29T05:33:28.789Z,-76
2023-08-29T05:36:01.254Z,-76
2023-08-29T05:38:33.606Z,-76
2023-08-29T05:41:05.889Z,-76
2023-08-29T05:43:38.252Z,-75
2023-08-29T05:46:10.625Z,-75
2023-08-29T05:48:45.626Z,-74
2023-08-29T05:51:18.421Z,-75
2023-08-29T05:53:50.657Z,-74
2023-08-29T05:56:22.948Z,-74
2023-08-29T05:58:55.719Z,-75
2023-08-29T06:01:30.425Z,-76
2023-08-29T06:04:05.923Z,-75
2023-08-29T06:06:41.374Z,-75
2023-08-29T06:09:14.010Z,-75
2023-08-29T06:11:46.416Z,-76
2023-08-29T06:14:18.682Z,-75
2023-08-29T06:16:50.973Z,-75
2023-08-29T06:19:27.109Z,-75
2023-08-29T06:21:59.417Z,-75
2023-08-29T06:24:31.719Z,-75
2023-08-29T06:27:03.978Z,-75
2023-08-29T06:29:37.249Z,-75
2023-08-29T06:32:10.276Z,-75
2023-08-29T06:34:45.190Z,-75
2023-08-29T06:37:17.802Z,-75
2023-08-29T06:39:50.749Z,-75
2023-08-29T06:42:23.100Z,-76
2023-08-29T06:45:01.584Z,-75
2023-08-29T06:47:33.897Z,-76
2023-08-29T06:50:10.058Z,-76
2023-08-29T06:52:42.465Z,-76
2023-08-29T06:55:14.959Z,-76
2023-08-29T06:57:47.177Z,-78
2023-08-29T07:00:24.026Z,-76
2023-08-29T07:02:56.534Z,-75
2023-08-29T07:05:32.136Z,-76
2023-08-29T07:08:05.857Z,-77
2023-08-29T07:10:38.936Z,-76
2023-08-29T07:13:11.380Z,-77
2023-08-29T07:15:46.087Z,-77
2023-08-29T07:18:18.521Z,-77
2023-08-29T07:20:56.235Z,-75
2023-08-29T07:23:29.711Z,-75
2023-08-29T07:26:05.700Z,-77
2023-08-29T07:28:38.083Z,-76
2023-08-29T07:31:10.448Z,-76
2023-08-29T07:33:42.854Z,-76
2023-08-29T07:36:17.798Z,-77
2023-08-29T07:38:50.821Z,-76
2023-08-29T07:41:23.176Z,-77
2023-08-29T07:43:55.466Z,-76
2023-08-29T07:46:28.390Z,-76
2023-08-29T07:49:02.096Z,-76
2023-08-29T07:51:37.138Z,-76
2023-08-29T07:54:10.009Z,-76
2023-08-29T07:56:42.425Z,-77
2023-08-29T07:59:15.305Z,-76
2023-08-29T08:01:49.445Z,-76
2023-08-29T08:04:21.830Z,-77
2023-08-29T08:06:56.837Z,-77
2023-08-29T08:09:29.900Z,-75
2023-08-29T08:12:05.068Z,-75
2023-08-29T08:14:37.439Z,-76
2023-08-29T08:17:10.740Z,-74
2023-08-29T08:19:43.147Z,-74
2023-08-29T08:22:18.850Z,-75
2023-08-29T08:24:51.158Z,-74
2023-08-29T08:27:23.667Z,-73
2023-08-29T08:29:56.363Z,-75
2023-08-29T08:32:28.854Z,-74
2023-08-29T08:35:01.190Z,-73
2023-08-29T08:37:37.354Z,-74
2023-08-29T08:40:11.779Z,-74
2023-08-29T08:42:45.808Z,-73
2023-08-29T08:45:19.257Z,-73
2023-08-29T08:47:52.057Z,-74
2023-08-29T08:50:24.882Z,-73
2023-08-29T08:53:03.678Z,-73
2023-08-29T08:55:39.236Z,-73
2023-08-29T08:58:11.956Z,-73
2023-08-29T09:00:44.699Z,-73
2023-08-29T09:03:18.114Z,-73
2023-08-29T09:05:51.190Z,-74
2023-08-29T09:08:27.825Z,-75
2023-08-29T09:11:04.773Z,-76
2023-08-29T09:13:37.075Z,-74
2023-08-29T09:16:09.560Z,-76
2023-08-29T09:18:42.725Z,-75
2023-08-29T09:21:22.720Z,-75
2023-08-29T09:23:58.075Z,-76
2023-08-29T09:26:36.286Z,-76
2023-08-29T09:29:21.993Z,-74
2023-08-29T09:31:54.692Z,-76
2023-08-29T09:34:32.025Z,-73
2023-08-29T09:37:08.351Z,-75
2023-08-29T09:39:43.681Z,-75
2023-08-29T09:42:18.031Z,-75
2023-08-29T09:44:53.627Z,-78
2023-08-29T09:47:28.334Z,-74
2023-08-29T09:50:01.119Z,-74
2023-08-29T09:52:34.782Z,-75
2023-08-29T09:55:16.901Z,-75
2023-08-29T09:57:50.252Z,-75
2023-08-29T10:00:24.462Z,-75
2023-08-29T10:03:02.647Z,-75
2023-08-29T10:05:39.804Z,-73
2023-08-29T10:08:20.887Z,-73
2023-08-29T10:10:58.089Z,-72
2023-08-29T10:13:31.085Z,-73
2023-08-29T10:16:07.818Z,-74
2023-08-29T10:18:41.296Z,-75
2023-08-29T10:21:16.666Z,-72
2023-08-29T10:23:50.165Z,-73
2023-08-29T10:26:27.127Z,-74
2023-08-29T10:29:01.554Z,-73
2023-08-29T10:31:34.690Z,-74
2023-08-29T10:34:08.188Z,-77
2023-08-29T10:36:44.012Z,-77
2023-08-29T10:39:19.264Z,-75
2023-08-29T10:41:59.275Z,-75
2023-08-29T10:44:45.497Z,-74
2023-08-29T10:47:28.078Z,-75
2023-08-29T10:50:06.870Z,-77
2023-08-29T10:52:43.018Z,-78
2023-08-29T10:55:26.564Z,-77
2023-08-29T10:58:02.298Z,-78
2023-08-29T11:00:58.323Z,-74
2023-08-29T11:03:51.236Z,-75
2023-08-29T11:06:26.733Z,-75
2023-08-29T11:09:22.471Z,-75
2023-08-29T11:12:10.952Z,-75
2023-08-29T11:14:59.647Z,-75
2023-08-29T11:17:33.354Z,-75
2023-08-29T11:20:08.736Z,-75
2023-08-29T11:22:42.767Z,-75
2023-08-29T11:25:15.105Z,-75
2023-08-29T11:27:47.391Z,-74
2023-08-29T11:30:34.885Z,-74
2023-08-29T11:33:15.548Z,-77
2023-08-29T11:35:48.216Z,-75
2023-08-29T11:38:20.510Z,-74
2023-08-29T11:41:09.768Z,-76
2023-08-29T11:44:12.870Z,-74
2023-08-29T11:46:42.559Z,-74
2023-08-29T11:49:18.843Z,-75
2023-08-29T11:51:51.243Z,-74
2023-08-29T11:54:45.592Z,-74
2023-08-29T11:57:19.159Z,-73
2023-08-29T11:59:53.200Z,-74
2023-08-29T12:02:28.804Z,-75
2023-08-29T12:05:02.006Z,-75
2023-08-29T12:07:37.175Z,-74
2023-08-29T12:10:15.424Z,-74
2023-08-29T12:12:48.487Z,-74
2023-08-29T12:15:30.867Z,-73
2023-08-29T12:18:26.088Z,-73
2023-08-29T12:21:21.515Z,-73
2023-08-29T12:23:53.838Z,-74
2023-08-29T12:26:26.383Z,-74
2023-08-29T12:28:59.066Z,-74
2023-08-29T12:31:31.492Z,-75
2023-08-29T12:34:06.480Z,-73
2023-08-29T12:36:38.753Z,-75
2023-08-29T12:39:14.798Z,-75
2023-08-29T12:41:48.399Z,-75
2023-08-29T12:44:20.913Z,-74
2023-08-29T12:46:53.326Z,-75
2023-08-29T12:49:28.591Z,-75
2023-08-29T12:52:01.040Z,-74
2023-08-29T12:54:34.992Z,-75
2023-08-29T12:57:07.670Z,-74
2023-08-29T12:59:40.425Z,-74
2023-08-29T13:02:12.747Z,-74
2023-08-29T13:04:47.689Z,-75
2023-08-29T13:07:20.061Z,-73
2023-08-29T13:09:53.069Z,-74
2023-08-29T13:12:25.446Z,-74
2023-08-29T13:14:58.175Z,-74
2023-08-29T13:17:31.041Z,-74
2023-08-29T13:20:06.487Z,-75
2023-08-29T13:22:38.898Z,-75
2023-08-29T13:25:12.329Z,-74
2023-08-29T13:27:44.662Z,-73
2023-08-29T13:30:18.887Z,-75
2023-08-29T13:32:51.185Z,-74
2023-08-29T13:35:26.312Z,-74
2023-08-29T13:37:58.600Z,-74
2023-08-29T13:40:31.225Z,-74
2023-08-29T13:43:03.819Z,-74
2023-08-29T13:45:39.336Z,-74
2023-08-29T13:48:11.931Z,-74
2023-08-29T13:50:47.833Z,-73
2023-08-29T13:53:20.181Z,-74
2023-08-29T13:55:54.921Z,-73
2023-08-29T13:58:27.300Z,-76
2023-08-29T14:00:59.781Z,-74
2023-08-29T14:03:38.973Z,-73
2023-08-29T14:06:14.813Z,-74
2023-08-29T14:08:49.647Z,-76
2023-08-29T14:11:22.252Z,-74
2023-08-29T14:13:54.640Z,-73
2023-08-29T14:16:27.008Z,-75
2023-08-29T14:18:59.609Z,-75
2023-08-29T14:21:34.536Z,-75
2023-08-29T14:24:08.051Z,-75
2023-08-29T14:26:40.735Z,-74
2023-08-29T14:29:13.351Z,-77
2023-08-29T14:31:45.764Z,-74
2023-08-29T14:34:18.111Z,-74
2023-08-29T14:36:53.034Z,-74
2023-08-29T14:39:27.464Z,-75
2023-08-29T14:41:59.760Z,-75
2023-08-29T14:44:32.163Z,-75
2023-08-29T14:47:04.451Z,-75
2023-08-29T14:49:37.259Z,-74
2023-08-29T14:52:14.262Z,-75
2023-08-29T14:54:46.657Z,-78
2023-08-29T14:57:18.976Z,-75
2023-08-29T14:59:51.736Z,-75
2023-08-29T15:02:24.118Z,-75
2023-08-29T15:04:56.469Z,-75
2023-08-29T15:07:31.497Z,-74
2023-08-29T15:10:04.990Z,-75
2023-08-29T15:12:37.377Z,-75
2023-08-29T15:15:10.890Z,-74
2023-08-29T15:17:43.257Z,-74
2023-08-29T15:20:18.891Z,-76
2023-08-29T15:22:53.861Z,-76
2023-08-29T15:25:26.798Z,-75
2023-08-29T15:27:59.097Z,-75
2023-08-29T15:30:31.861Z,-75
2023-08-29T15:33:04.281Z,-74
2023-08-29T15:35:36.763Z,-75
2023-08-29T15:38:11.633Z,-75
2023-08-29T15:40:49.035Z,-75
2023-08-29T15:43:21.690Z,-75
2023-08-29T15:45:54.317Z,-74
2023-08-29T15:48:26.726Z,-75
2023-08-29T15:50:59.999Z,-74
2023-08-29T15:53:35.351Z,-75
2023-08-29T15:56:08.918Z,-75
2023-08-29T15:58:41.332Z,-75
2023-08-29T16:01:14.424Z,-75
2023-08-29T16:03:46.954Z,-75
2023-08-29T16:06:19.360Z,-75
2023-08-29T16:08:54.787Z,-75
2023-08-29T16:11:27.133Z,-74
2023-08-29T16:13:59.519Z,-74
2023-08-29T16:16:31.945Z,-74
2023-08-29T16:19:08.004Z,-74
2023-08-29T16:21:40.324Z,-74
2023-08-29T16:24:16.692Z,-74
2023-08-29T16:26:49.280Z,-74
2023-08-29T16:29:21.879Z,-73
2023-08-29T16:31:54.092Z,-74
2023-08-29T16:34:26.400Z,-73
2023-08-29T16:36:58.833Z,-74
2023-08-29T16:39:34.479Z,-74
2023-08-29T16:42:07.059Z,-74
2023-08-29T16:44:39.402Z,-75
2023-08-29T16:47:11.746Z,-75
2023-08-29T16:49:44.131Z,-75
2023-08-29T16:52:16.632Z,-74
2023-08-29T16:54:51.533Z,-76
2023-08-29T16:57:23.967Z,-75
2023-08-29T17:00:02.038Z,-75
2023-08-29T17:02:34.456Z,-75
2023-08-29T17:05:07.108Z,-76
2023-08-29T17:07:40.144Z,-75
2023-08-29T17:10:16.187Z,-75
2023-08-29T17:12:48.735Z,-75
2023-08-29T17:15:21.091Z,-75
2023-08-29T17:17:53.461Z,-75
2023-08-29T17:20:25.934Z,-75
2023-08-29T17:22:58.335Z,-75
2023-08-29T17:25:34.743Z,-75
2023-08-29T17:28:07.584Z,-75
2023-08-29T17:30:40.094Z,-75
2023-08-29T17:33:12.618Z,-75
2023-08-29T17:35:45.018Z,-75
2023-08-29T17:38:17.430Z,-75
2023-08-29T17:40:52.639Z,-75
2023-08-29T17:43:25.060Z,-76
2023-08-29T17:45:58.309Z,-74
2023-08-29T17:48:30.716Z,-76
2023-08-29T17:51:04.382Z,-75
2023-08-29T17:53:36.762Z,-75
2023-08-29T17:56:11.712Z,-74
2023-08-29T17:58:44.080Z,-73
2023-08-29T18:01:16.692Z,-74
2023-08-29T18:03:49.114Z,-74
2023-08-29T18:06:25.131Z,-74
2023-08-29T18:08:57.916Z,-74
2023-08-29T18:11:34.039Z,-74
2023-08-29T18:14:07.466Z,-74
2023-08-29T18:16:39.818Z,-74
2023-08-29T18:19:12.232Z,-74
2023-08-29T18:21:44.492Z,-74
2023-08-29T18:24:17.002Z,-73
2023-08-29T18:26:51.953Z,-73
2023-08-29T18:29:25.240Z,-73
2023-08-29T18:31:57.583Z,-73
2023-08-29T18:34:29.901Z,-74
2023-08-29T18:37:02.251Z,-74
2023-08-29T18:39:34.644Z,-74
2023-08-29T18:42:10.095Z,-74
2023-08-29T18:44:42.528Z,-74
2023-08-29T18:47:14.890Z,-74
2023-08-29T18:49:47.320Z,-73
2023-08-29T18:52:20.027Z,-72
2023-08-29T18:54:52.293Z,-72
2023-08-29T18:57:27.295Z,-73
2023-08-29T19:00:00.452Z,-73
2023-08-29T19:02:32.971Z,-72
2023-08-29T19:05:05.287Z,-73
2023-08-29T19:07:37.974Z,-73
2023-08-29T19:10:12.400Z,-73
2023-08-29T19:12:49.487Z,-72
2023-08-29T19:15:21.820Z,-75
2023-08-29T19:17:54.143Z,-73
2023-08-29T19:20:26.518Z,-73
2023-08-29T19:22:58.817Z,-73
2023-08-29T19:25:31.160Z,-73
2023-08-29T19:28:06.496Z,-73
2023-08-29T19:30:39.225Z,-73
2023-08-29T19:33:15.422Z,-73
2023-08-29T19:35:47.820Z,-74
2023-08-29T19:38:20.374Z,-74
2023-08-29T19:40:53.189Z,-74
2023-08-29T19:43:28.131Z,-73
2023-08-29T19:46:00.438Z,-74
2023-08-29T19:48:34.131Z,-74
2023-08-29T19:51:06.789Z,-74
2023-08-29T19:53:39.146Z,-74
2023-08-29T19:56:11.491Z,-73
2023-08-29T19:58:46.952Z,-73
2023-08-29T20:01:19.217Z,-76
2023-08-29T20:03:51.571Z,-74
2023-08-29T20:06:26.398Z,-73
2023-08-29T20:08:59.378Z,-73
2023-08-29T20:11:31.760Z,-74
2023-08-29T20:14:06.669Z,-74
2023-08-29T20:16:39.051Z,-73
2023-08-29T20:19:11.783Z,-73
2023-08-29T20:21:44.736Z,-73
2023-08-29T20:24:17.194Z,-74
2023-08-29T20:26:49.597Z,-75
2023-08-29T20:29:25.100Z,-74
2023-08-29T20:31:57.385Z,-74
2023-08-29T20:34:29.682Z,-74
2023-08-29T20:37:02.020Z,-73
2023-08-29T20:39:36.040Z,-74
2023-08-29T20:42:09.191Z,-74
2023-08-29T20:44:44.171Z,-73
2023-08-29T20:47:16.475Z,-73
2023-08-29T20:49:49.077Z,-75
2023-08-29T20:52:21.595Z,-74
2023-08-29T20:54:53.970Z,-74
2023-08-29T20:57:26.354Z,-74
2023-08-29T21:00:03.368Z,-74
2023-08-29T21:02:36.680Z,-73
2023-08-29T21:05:10.234Z,-73
2023-08-29T21:07:42.598Z,-75
2023-08-29T21:10:17.335Z,-73
2023-08-29T21:12:49.715Z,-73
2023-08-29T21:15:25.259Z,-74
2023-08-29T21:17:57.583Z,-74
2023-08-29T21:20:30.111Z,-74
2023-08-29T21:23:02.434Z,-74
2023-08-29T21:25:35.804Z,-74
2023-08-29T21:28:09.412Z,-74
2023-08-29T21:30:46.755Z,-73
2023-08-29T21:33:19.406Z,-74
2023-08-29T21:35:52.928Z,-74
2023-08-29T21:38:26.754Z,-74
2023-08-29T21:40:59.526Z,-73
2023-08-29T21:43:31.840Z,-74
2023-08-29T21:46:10.688Z,-73
2023-08-29T21:48:43.061Z,-75
2023-08-29T21:51:22.026Z,-74
2023-08-29T21:53:54.417Z,-75
2023-08-29T21:56:27.768Z,-75
2023-08-29T21:59:00.341Z,-74
2023-08-29T22:01:35.235Z,-75
2023-08-29T22:04:08.027Z,-75
2023-08-29T22:06:40.302Z,-75
2023-08-29T22:09:12.895Z,-75
2023-08-29T22:11:45.478Z,-75
2023-08-29T22:14:19.029Z,-75
2023-08-29T22:16:53.845Z,-75
2023-08-29T22:19:26.731Z,-74
2023-08-29T22:21:59.022Z,-75
2023-08-29T22:24:31.395Z,-74
2023-08-29T22:27:03.705Z,-75
2023-08-29T22:29:36.413Z,-74
2023-08-29T22:32:12.657Z,-74
2023-08-29T22:34:46.232Z,-75
2023-08-29T22:37:18.841Z,-75
2023-08-29T22:39:53.161Z,-75
2023-08-29T22:42:26.092Z,-75
2023-08-29T22:44:58.615Z,-74
2023-08-29T22:47:33.537Z,-74
2023-08-29T22:50:06.234Z,-73
2023-08-29T22:52:40.053Z,-75
2023-08-29T22:55:14.108Z,-74
2023-08-29T22:57:46.798Z,-75
2023-08-29T23:00:21.649Z,-75
2023-08-29T23:02:56.634Z,-74
2023-08-29T23:05:28.986Z,-76
2023-08-29T23:08:02.444Z,-75
2023-08-29T23:10:35.548Z,-75
2023-08-29T23:13:08.235Z,-75
2023-08-29T23:15:40.779Z,-75
2023-08-29T23:18:15.759Z,-75
2023-08-29T23:20:48.088Z,-75
2023-08-29T23:23:21.966Z,-75
2023-08-29T23:25:59.236Z,-75
2023-08-29T23:28:32.018Z,-75
2023-08-29T23:31:05.120Z,-76
2023-08-29T23:33:54.285Z,-75
2023-08-29T23:36:27.136Z,-75
2023-08-29T23:38:59.718Z,-74
2023-08-29T23:41:32.754Z,-75
2023-08-29T23:44:05.150Z,-75
2023-08-29T23:46:37.558Z,-75
2023-08-29T23:49:12.739Z,-75
2023-08-29T23:51:45.029Z,-74
2023-08-29T23:54:18.313Z,-75
2023-08-29T23:56:50.618Z,-75
2023-08-29T23:59:23.266Z,-75
